Marion, WI (54950)

2:20 AM CDT on October 24, 2014 (GMT -0500)
Clintonville Municipal | Change Station
CLOSE
Current Station
Airport
Location: Clintonville,
Elevation: 823 ft
Nearby Weather Stations

Elev 823 ft 44.62 °N, 88.73 °W | Updated 5 minutes ago

Overcast
Overcast
46 °F
Feels Like 46 °F
N
0
Wind Variable Wind from North

Today
High -- | Low -- °F
--% Chance of Precip.
Yesterday
High -- | Low -- °F
Precip. -- in
7:22 AM 5:56 PM
New Moon, 0% visible
Pressure 30.02 in
Visibility 3.0 miles
Clouds Scattered Clouds 300 ft
Overcast 1400 ft
Dew Point 45 °F
Humidity 93%
Rainfall 0.00 in
Snow Depth Not available.
UV 0 out of 12
Pollen .10 out of 12
Air Quality Not available.
Flu Activity Sporadic
METAR KCLI 240715Z AUTO 00000KT 3SM BR SCT003 OVC014 08/07 A3002 RMK AO2

More Conditions Fewer Conditions

Pressure 30.02 in
Visibility 3.0 miles
Clouds Scattered Clouds 300 ft
Overcast 1400 ft
Dew Point 45 °F
Humidity 93%
Rainfall 0.00 in
Snow Depth Not available.
UV 0 out of 12
Pollen .10 out of 12
Air Quality Not available.
Flu Activity Sporadic
METAR KCLI 240715Z AUTO 00000KT 3SM BR SCT003 OVC014 08/07 A3002 RMK AO2

More Conditions Fewer Conditions

10-Day Weather Forecast

Almanac

Astronomy

Oct. 24, 2014 Rise Set
Actual Time 7:22 AM CDT 5:56 PM CDT
Civil Twilight 6:52 AM CDT 6:25 PM CDT
Nautical Twilight 6:18 AM CDT 7:00 PM CDT
Astronomical Twilight 5:44 AM CDT 7:33 PM CDT
Moon 8:02 AM CDT 6:34 PM CDT
Length of Visible Light 11h 33m
Length of Day
10h 33m
Tomorrow will be 2m 53s shorter.
New Moon, 0% of the Moon is Illuminated
Today
New Moon
Oct 30
First Quarter
Nov 6
Full
Nov 14
Last Quarter
Nov 22
New

Today's Extremes

State Highs State Lows

Community

WunderPhotos

Upload Photos

1,764,510 photos uploaded!

WunderBlogs® & News

Nearby

Snow Depth

Station Depth Elevation
No new snow has been reported.

Earthquake Activity

City Distance Mag. Time & Date
No recent earthquake activity has been reported nearby.
Minimum magnitude displayed is 2.5.

Coastal Water Temperatures

Place Temperature
No Stations Reporting

Nearby Weather Stations